Latest Weather Observations for Nerriga

IDN60801

Issued at 12:05 am EDT Sunday 2 November 2014 (issued every 30 minutes, with the page automatically refreshed every 10 minutes)

About weather observations | Map of weather stations | Latest weather observations for NSW | Other Formats
Station Details ID: 069128 Name: NERRIGA AWS Lat: -35.11 Lon: 150.08 Height: 622.0 m
Data from the previous 72 hours. | See also: Recent months at Nerriga
Date/Time
EDT
Temp
°C
App
Temp
°C
Dew
Point
Rel
Hum
%
Delta-T
°C
Wind Press
QNH
hPa
Press
MSL
hPa
Rain
since 9 am
mm
Dir
 
Spd
km/h
Gust
km/h
Spd
kts
Gust
kts
02/12:00am 10.7 4.9 -0.1 47 4.5 WNW 20 30 11 16 1012.5 1010.9 0.0
 
Date/Time
EDT
Temp
°C
App
Temp
°C
Dew
Point
Rel
Hum
%
Delta-T
°C
Wind Press
QNH
hPa
Press
MSL
hPa
Rain
since 9 am
mm
Dir
 
Spd
km/h
Gust
km/h
Spd
kts
Gust
kts
01/11:30pm 11.6 4.9 -0.9 42 5.2 WNW 24 39 13 21 1012.5 1010.9 0.0
01/11:00pm 12.1 5.8 -1.1 40 5.5 W 22 32 12 17 1011.9 1010.3 0.0
01/10:30pm 12.4 6.5 -0.8 40 5.5 W 20 33 11 18 1011.5 1009.9 0.0
01/10:00pm 12.8 6.4 0.9 44 5.2 W 24 43 13 23 1011.1 1009.5 0.0
01/09:30pm 13.1 6.6 0.5 42 5.5 W 24 39 13 21 1010.5 1008.9 0.0
01/09:00pm 13.7 6.5 0.4 40 5.8 W 28 39 15 21 1009.7 1008.1 0.0
01/08:30pm 14.5 7.0 1.1 40 6.0 W 30 41 16 22 1009.1 1007.5 0.0
01/08:06pm 15.1 8.0 3.3 45 5.5 W 30 50 16 27 1008.2 1006.6 0.0
01/08:00pm 15.0 8.5 4.7 50 5.0 W 28 41 15 22 1008.1 1006.5 0.0
01/07:30pm 15.4 7.8 5.9 53 4.7 W 35 56 19 30 1007.2 1005.5 0.0
01/07:22pm 15.5 9.3 6.2 54 4.7 W 28 50 15 27 1007.0 1005.3 0.0
01/07:00pm 16.2 9.5 5.8 50 5.2 W 30 43 16 23 1006.4 1004.8 0.0
01/06:30pm 17.2 9.5 5.5 46 5.8 W 35 59 19 32 1005.7 1004.0 0.0
01/06:00pm 17.4 11.2 9.3 59 4.4 WNW 32 57 17 31 1004.9 1003.3 0.0
01/05:53pm 17.4 10.7 9.8 61 4.1 WNW 35 57 19 31 1004.6 1002.9 0.0
01/05:30pm 17.8 11.5 11.1 65 3.7 WNW 35 48 19 26 1004.2 1002.5 0.0
01/05:09pm 17.2 9.7 11.0 67 3.4 W 41 67 22 36 1003.7 1002.0 0.0
01/05:00pm 17.1 9.3 11.2 68 3.3 W 43 57 23 31 1003.8 1002.1 0.0
01/04:30pm 18.7 11.4 11.5 63 4.1 W 41 61 22 33 1003.0 1001.3 0.0
01/04:00pm 20.8 11.7 11.4 55 5.4 WNW 50 74 27 40 1002.3 1000.6 0.0
01/03:38pm 21.0 14.5 11.6 55 5.4 WNW 37 57 20 31 1002.5 1000.8 0.0
01/03:30pm 21.1 13.1 11.2 53 5.6 WNW 44 57 24 31 1002.2 1000.5 0.0
01/03:00pm 21.1 14.5 11.4 54 5.6 W 37 63 20 34 1002.6 1000.9 0.0
01/02:30pm 20.8 14.4 12.0 57 5.1 WNW 37 57 20 31 1002.8 1001.1 0.0
01/02:03pm 22.3 13.0 13.1 56 5.4 WNW 54 85 29 46 1001.9 1000.1 0.0
01/02:00pm 23.1 14.3 13.3 54 5.9 WNW 52 67 28 36 1002.3 1000.6 0.0
01/01:30pm 24.6 16.2 13.5 50 6.7 NW 50 70 27 38 1002.4 1000.7 0.0
01/01:00pm 23.8 16.5 13.4 52 6.2 NW 44 63 24 34 1001.7 999.9 0.0
01/12:30pm 22.7 13.4 13.2 55 5.6 NW 54 82 29 44 1002.8 1001.1 0.0
01/12:16pm 22.9 12.7 13.1 54 5.8 NW 59 80 32 43 1002.7 1001.0 0.0
01/12:13pm 23.1 12.2 13.3 54 5.8 NW 63 76 34 41 1002.5 1000.8 0.0
01/12:01pm 23.4 16.0 13.0 52 6.2 NW 44 74 24 40 1002.8 1001.1 0.0
01/12:00pm 23.6 16.4 13.2 52 6.2 NW 43 59 23 32 1002.9 1001.2 0.0
01/11:53am 24.3 18.2 14.1 53 6.2 NW 39 54 21 29 1002.9 1001.2 0.0
01/11:46am 23.8 13.3 13.4 52 6.2 NW 61 80 33 43 1002.7 1001.0 0.0
01/11:44am 24.1 12.1 13.6 52 6.3 NW 69 80 37 43 1002.7 1001.0 0.0
01/11:35am 23.8 16.0 13.1 51 6.4 NW 46 85 25 46 1002.9 1001.2 0.0
01/11:31am 23.8 16.7 13.4 52 6.2 NW 43 63 23 34 1003.0 1001.3 0.0
01/11:30am 23.7 17.1 13.6 53 6.1 NW 41 57 22 31 1003.1 1001.4 0.0
01/11:01am 22.8 14.6 13.0 54 5.8 NW 48 69 26 37 1003.8 1002.1 0.0
01/11:00am 22.8 14.1 12.7 53 6.0 NW 50 69 27 37 1003.7 1002.0 0.0
01/10:30am 24.0 14.1 12.3 48 6.9 WNW 56 76 30 41 1003.4 1002.4 0.0
01/10:00am 24.7 17.3 13.0 48 7.0 WNW 44 72 24 39 1004.0 1003.0 0.0
01/09:35am 24.9 18.5 13.1 48 7.0 NW 39 59 21 32 1004.3 1003.3 0.0
01/09:30am 23.9 16.7 11.9 47 7.0 NW 41 59 22 32 1004.4 1003.4 0.0
01/09:20am 25.1 20.5 12.3 45 7.6 NW 28 54 15 29 1004.6 1003.7 0.0
01/09:00am 23.7 19.7 11.7 47 7.0 NW 24 33 13 18 1003.9 1002.9 0.0
01/08:30am 22.6 18.2 11.7 50 6.3 NNW 26 41 14 22 1004.5 1003.6 0.0
01/08:00am 21.1 18.1 10.6 51 5.9 N 17 24 9 13 1004.9 1004.0 0.0
01/07:30am 19.8 17.6 10.8 56 5.0 NNW 13 20 7 11 1005.3 1004.3 0.0
01/07:00am 18.0 15.9 9.6 58 4.6 N 11 15 6 8 1005.6 1004.6 0.0
01/06:30am 18.1 16.7 9.5 57 4.7 NNW 7 13 4 7 1005.6 1004.6 0.0
01/06:00am 17.8 15.5 8.9 56 4.8 NNW 11 15 6 8 1005.3 1004.3 0.0
01/05:30am 17.7 16.2 8.6 55 4.8 NNW 6 7 3 4 1005.5 1004.5 0.0
01/05:00am 18.1 16.5 8.1 52 5.3 NNW 6 9 3 5 1005.5 1004.5 0.0
01/04:30am 18.2 15.9 7.6 50 5.6 NNW 9 11 5 6 1005.7 1004.7 0.0
01/04:00am 18.5 16.6 6.7 46 6.1 NNW 6 7 3 4 1005.6 1004.6 0.0
01/03:30am 18.4 16.1 5.9 44 6.3 NNW 7 9 4 5 1006.0 1005.1 0.0
01/03:00am 18.4 15.8 5.9 44 6.4 N 9 13 5 7 1006.4 1005.5 0.0
01/02:30am 18.3 16.1 6.2 45 6.2 NNW 7 9 4 5 1006.9 1005.9 0.0
01/02:00am 18.4 15.8 6.3 45 6.2 N 9 11 5 6 1007.1 1006.1 0.0
01/01:30am 19.8 16.8 5.8 40 7.2 N 11 15 6 8 1007.4 1006.5 0.0
01/01:00am 19.6 16.1 5.3 39 7.2 WNW 13 17 7 9 1008.0 1007.1 0.0
01/12:30am 20.6 17.3 4.6 35 8.0 N 11 15 6 8 1007.6 1006.7 0.0
01/12:00am 20.5 17.6 4.5 35 8.0 N 9 13 5 7 1007.9 1007.0 0.0
 
Date/Time
EDT
Temp
°C
App
Temp
°C
Dew
Point
Rel
Hum
%
Delta-T
°C
Wind Press
QNH
hPa
Press
MSL
hPa
Rain
since 9 am
mm
Dir
 
Spd
km/h
Gust
km/h
Spd
kts
Gust
kts
31/11:30pm 20.9 18.0 4.5 34 8.2 N 9 17 5 9 1008.1 1007.2 0.0
31/11:00pm 21.0 17.8 5.0 35 8.1 N 11 17 6 9 1008.3 1007.4 0.0
31/10:30pm 21.9 18.3 4.9 33 8.7 N 13 24 7 13 1008.8 1007.9 0.0
31/10:00pm 22.6 18.3 5.1 32 9.0 N 17 28 9 15 1009.0 1008.1 0.0
31/09:30pm 21.5 17.4 4.6 33 8.5 NE 15 19 8 10 1009.1 1008.2 0.0
31/09:00pm 21.0 18.4 4.1 33 8.4 N 7 7 4 4 1009.0 1008.1 0.0
31/08:30pm 21.1 18.8 4.6 34 8.3 N 6 7 3 4 1009.0 1008.1 0.0
31/08:00pm 22.3 20.2 3.9 30 9.2 N 4 6 2 3 1009.0 1008.1 0.0
31/07:30pm 25.5 22.7 2.9 23 11.4 N 7 9 4 5 1009.0 1008.1 0.0
31/07:00pm 26.2 22.4 4.1 24 11.4 N 13 19 7 10 1008.9 1008.0 0.0
31/06:30pm 26.8 23.1 4.6 24 11.6 NNW 13 19 7 10 1008.9 1008.0 0.0
31/06:00pm 26.9 21.6 2.1 20 12.4 NNW 19 28 10 15 1009.0 1008.1 0.0
31/05:30pm 27.3 22.2 3.1 21 12.3 NW 19 26 10 14 1009.0 1008.1 0.0
31/05:00pm 27.6 21.6 3.3 21 12.5 NW 24 37 13 20 1009.0 1008.1 0.0
31/04:30pm 27.8 21.6 2.1 19 12.9 NW 24 35 13 19 1009.1 1008.2 0.0
31/04:00pm 29.0 21.4 3.1 19 13.4 WNW 32 48 17 26 1009.3 1008.4 0.0
31/03:31pm 29.1 21.3 1.6 17 13.8 NW 32 50 17 27 1009.5 1008.6 0.0
31/03:30pm 29.2 21.8 1.7 17 13.9 NW 30 44 16 24 1009.6 1008.7 0.0
31/03:00pm 29.2 21.9 2.5 18 13.7 NW 30 43 16 23 1010.0 1009.1 0.0
31/02:32pm 29.1 21.8 2.4 18 13.6 NNW 30 57 16 31 1010.2 1009.3 0.0
31/02:30pm 29.3 22.5 3.3 19 13.5 NW 28 43 15 23 1010.5 1009.6 0.0
31/02:14pm 29.3 22.8 4.7 21 13.1 NW 28 48 15 26 1010.9 1010.0 0.0
31/02:00pm 28.5 20.9 4.1 21 12.8 NW 33 52 18 28 1010.9 1010.0 0.0
31/01:30pm 29.4 23.3 4.8 21 13.1 WNW 26 39 14 21 1011.3 1010.4 0.0
31/01:14pm 28.7 21.6 1.3 17 13.7 WNW 28 50 15 27 1011.5 1010.7 0.0
31/01:00pm 28.2 20.2 1.7 18 13.3 WNW 33 50 18 27 1011.7 1010.9 0.0
31/12:30pm 28.4 21.4 4.0 21 12.7 WNW 30 52 16 28 1012.1 1011.2 0.0
31/12:25pm 28.6 22.0 4.2 21 12.8 WNW 28 52 15 28 1011.9 1011.0 0.0
31/12:00pm 28.1 21.3 5.0 23 12.2 WNW 30 39 16 21 1012.4 1011.5 0.0
31/11:59am 28.2 21.0 5.1 23 12.3 WNW 32 39 17 21 1012.3 1011.4 0.0
31/11:30am 26.2 24.9 9.1 34 9.6 N 6 11 3 6 1013.1 1012.3 0.0
31/11:00am 24.5 22.4 9.6 39 8.4 N 11 15 6 8 1014.0 1013.1 0.0
31/10:30am 22.7 21.2 10.5 46 6.9 N 9 15 5 8 1014.5 1013.7 0.0
31/10:00am 20.9 20.3 10.4 51 5.9 ESE 4 11 2 6 1014.8 1014.0 0.0
31/09:30am 19.1 18.4 9.9 55 5.1 ESE 4 6 2 3 1014.9 1014.1 0.0
31/09:00am 17.4 17.3 9.6 60 4.2 CALM 0 2 0 1 1015.1 1014.3 0.0
31/08:30am 14.9 14.0 9.1 68 3.1 SE 4 6 2 3 1015.3 1014.4 0.0
31/08:00am 12.6 11.5 8.5 76 2.1 SE 4 6 2 3 1014.9 1014.1 0.0
31/07:30am 10.9 10.6 8.5 85 1.2 CALM 0 0 0 0 1014.7 1013.9 0.0
31/07:00am 8.7 8.2 7.8 94 0.4 CALM 0 0 0 0 1014.2 1013.3 0.0
31/06:30am 6.4 4.7 6.1 98 0.1 SE 4 4 2 2 1014.1 1013.2 0.0
31/06:00am 6.2 4.5 5.9 98 0.1 SE 4 6 2 3 1014.2 1013.3 0.0
31/05:30am 6.0 5.0 5.6 97 0.2 CALM 0 0 0 0 1014.1 1013.2 0.0
31/05:00am 6.4 5.4 5.4 93 0.5 CALM 0 0 0 0 1013.8 1012.9 0.0
31/04:30am 7.2 6.2 5.8 91 0.7 CALM 0 0 0 0 1014.0 1013.1 0.0
31/04:00am 7.1 6.1 5.4 89 0.8 CALM 0 0 0 0 1014.2 1013.3 0.0
31/03:30am 8.2 7.2 5.5 83 1.3 CALM 0 0 0 0 1014.4 1013.6 0.0
31/03:00am 8.1 6.9 6.4 89 0.8 SE 2 4 1 2 1014.5 1013.7 0.0
31/02:30am 8.5 6.9 6.3 86 1.0 SE 4 6 2 3 1014.8 1014.0 0.0
31/02:00am 9.0 7.7 5.9 81 1.5 SE 2 6 1 3 1015.0 1014.2 0.0
31/01:30am 11.9 11.1 6.4 69 2.7 CALM 0 0 0 0 1015.3 1014.4 0.0
31/01:00am 12.6 11.8 6.4 66 3.1 CALM 0 2 0 1 1015.5 1014.6 0.0
31/12:30am 12.5 10.5 7.2 70 2.7 ESE 7 11 4 6 1015.9 1015.1 0.0
31/12:00am 13.8 13.2 7.6 66 3.2 CALM 0 4 0 2 1016.1 1015.3 0.0
 
Date/Time
EDT
Temp
°C
App
Temp
°C
Dew
Point
Rel
Hum
%
Delta-T
°C
Wind Press
QNH
hPa
Press
MSL
hPa
Rain
since 9 am
mm
Dir
 
Spd
km/h
Gust
km/h
Spd
kts
Gust
kts
30/11:30pm 14.6 13.0 7.9 64 3.5 ESE 6 9 3 5 1016.0 1015.2 0.0
30/11:00pm 15.0 12.5 8.0 63 3.6 ESE 11 17 6 9 1015.8 1015.0 0.0
30/10:30pm 15.2 11.9 8.0 62 3.7 SE 15 19 8 10 1015.7 1014.9 0.0
30/10:00pm 14.4 11.1 4.7 52 4.7 SSW 11 13 6 7 1015.5 1014.6 0.0
30/09:30pm 16.4 14.2 3.1 41 6.3 W 4 6 2 3 1015.4 1014.5 0.0
30/09:00pm 19.5 16.1 1.9 31 8.3 W 9 15 5 8 1015.0 1014.2 0.0
30/08:30pm 21.1 15.6 1.9 28 9.2 WNW 20 30 11 16 1014.6 1013.8 0.0
30/08:00pm 20.0 15.5 1.9 30 8.6 WNW 15 20 8 11 1014.3 1013.5 0.0
30/07:30pm 20.8 17.0 1.6 28 9.1 WNW 11 13 6 7 1014.1 1013.2 0.0
30/07:00pm 22.4 17.1 2.0 26 9.9 WNW 19 26 10 14 1013.6 1012.7 0.0
30/06:30pm 23.4 18.1 2.8 26 10.2 WNW 20 39 11 21 1013.4 1012.6 0.0
30/06:00pm 23.9 17.0 2.7 25 10.5 WNW 28 39 15 21 1013.2 1012.4 0.0
30/05:30pm 24.4 16.9 1.3 22 11.2 WNW 30 44 16 24 1013.2 1012.4 0.0
30/05:00pm 24.6 18.3 1.5 22 11.3 WNW 24 41 13 22 1013.1 1012.3 0.0
30/04:30pm 25.4 20.5 4.0 25 11.0 W 19 32 10 17 1013.0 1012.2 0.0
30/04:00pm 24.8 17.2 2.9 24 11.0 WNW 32 41 17 22 1013.0 1012.2 0.0
30/03:30pm 24.9 18.8 4.6 27 10.5 WNW 26 37 14 20 1013.0 1012.2 0.0
30/03:00pm 24.5 19.3 5.3 29 10.0 WNW 22 33 12 18 1013.4 1012.6 0.0
30/02:30pm 24.6 18.6 5.4 29 10.0 WNW 26 33 14 18 1013.9 1013.0 0.0
30/02:00pm 23.9 18.8 4.3 28 10.0 W 20 32 11 17 1014.3 1013.5 0.0
30/01:30pm 23.6 17.1 4.5 29 9.8 WNW 28 37 15 20 1014.3 1013.5 0.0
30/01:00pm 23.8 18.3 7.4 35 8.8 WNW 26 46 14 25 1014.6 1013.8 0.0
30/12:54pm 23.1 16.8 5.5 32 9.1 W 28 46 15 25 1014.6 1013.8 0.0
30/12:30pm 22.5 16.2 5.9 34 8.6 WNW 28 41 15 22 1014.8 1014.0 0.0
30/12:00pm 22.3 15.9 5.3 33 8.7 W 28 37 15 20 1015.3 1014.4 0.0
30/11:30am 21.3 13.9 4.8 34 8.4 W 33 44 18 24 1015.3 1014.4 0.0
30/11:00am 20.1 13.6 4.6 36 7.8 W 28 39 15 21 1015.6 1014.7 0.0
30/10:30am 19.9 14.3 7.3 44 6.6 W 26 39 14 21 1015.6 1014.7 0.0
30/10:00am 18.0 15.1 8.0 52 5.3 W 13 20 7 11 1016.1 1015.3 0.0
30/09:30am 16.4 15.5 10.5 68 3.2 NNW 6 7 3 4 1016.1 1015.3 0.0
30/09:00am 14.0 14.2 10.4 79 1.9 CALM 0 0 0 0 1016.3 1015.5 0.2
30/08:30am 11.5 11.2 10.1 91 0.7 NNW 2 4 1 2 1016.3 1015.5 0.2
30/08:00am 10.1 10.2 10.0 99 0.1 CALM 0 0 0 0 1016.3 1015.5 0.2
30/07:30am 9.8 9.4 9.7 99 0.1 NNW 2 4 1 2 1016.1 1015.3 0.0
30/07:00am 9.2 9.0 9.1 99 0.1 CALM 0 0 0 0 1015.9 1015.1 0.0
30/06:30am 9.3 9.1 9.2 99 0.1 CALM 0 0 0 0 1015.6 1014.7 0.0
30/06:00am 9.1 8.1 9.0 99 0.1 NNW 4 6 2 3 1015.3 1014.4 0.0
30/05:30am 9.5 9.4 9.4 99 0.1 CALM 0 0 0 0 1015.0 1014.2 0.0
30/05:00am 9.9 9.1 9.8 99 0.1 NNW 4 6 2 3 1015.0 1014.2 0.0
30/04:30am 10.4 10.5 10.2 99 0.1 CALM 0 0 0 0 1015.1 1014.3 0.0
30/04:00am 10.8 10.3 10.6 99 0.1 NNW 4 6 2 3 1015.1 1014.3 0.0
30/03:30am 11.0 10.5 10.8 99 0.1 NNW 4 7 2 4 1015.1 1014.3 0.0
30/03:00am 11.6 10.3 11.4 99 0.1 NNW 9 11 5 6 1015.4 1014.5 0.0
30/02:30am 12.0 10.5 11.8 99 0.1 NNW 11 17 6 9 1015.6 1014.7 0.0
30/02:00am 12.1 10.6 11.9 99 0.1 NNW 11 13 6 7 1015.8 1015.0 0.0
30/01:30am 12.1 10.6 11.9 99 0.1 NNE 11 15 6 8 1016.1 1015.3 0.0
30/01:00am 11.7 11.0 11.5 99 0.1 ENE 6 9 3 5 1016.4 1015.6 0.0
30/12:30am 10.7 10.9 10.5 99 0.1 CALM 0 0 0 0 1016.7 1015.9 0.0

Other Formats:

Comma delimited format used in spreadsheet applications
http://www.bom.gov.au/fwo/IDN60801/IDN60801.94943.axf

JavaScript Object Notation format (JSON) in row-major order
http://www.bom.gov.au/fwo/IDN60801/IDN60801.94943.json